sensor_id;sensor_type;location;lat;lon;timestamp;temperature;humidity
70557;DHT22;58107;51.034;3.726;2022-09-01T00:01:48;21.50;53.70
70557;DHT22;58107;51.034;3.726;2022-09-01T00:04:18;21.50;53.50
70557;DHT22;58107;51.034;3.726;2022-09-01T00:06:47;21.40;53.60
70557;DHT22;58107;51.034;3.726;2022-09-01T00:09:17;21.30;53.60
70557;DHT22;58107;51.034;3.726;2022-09-01T00:11:49;21.40;53.50
70557;DHT22;58107;51.034;3.726;2022-09-01T00:14:17;21.20;53.40
70557;DHT22;58107;51.034;3.726;2022-09-01T00:16:46;21.10;54.30
70557;DHT22;58107;51.034;3.726;2022-09-01T00:19:13;20.90;55.30
70557;DHT22;58107;51.034;3.726;2022-09-01T00:21:43;20.80;56.20
70557;DHT22;58107;51.034;3.726;2022-09-01T00:24:12;20.60;56.60
70557;DHT22;58107;51.034;3.726;2022-09-01T00:26:39;20.70;57.00
70557;DHT22;58107;51.034;3.726;2022-09-01T00:29:07;20.60;57.20
70557;DHT22;58107;51.034;3.726;2022-09-01T00:31:35;20.50;57.40
70557;DHT22;58107;51.034;3.726;2022-09-01T00:34:04;20.40;57.90
70557;DHT22;58107;51.034;3.726;2022-09-01T00:36:31;20.40;58.50
70557;DHT22;58107;51.034;3.726;2022-09-01T00:38:59;20.20;59.00
70557;DHT22;58107;51.034;3.726;2022-09-01T00:41:29;20.10;59.60
70557;DHT22;58107;51.034;3.726;2022-09-01T00:44:01;20.00;60.00
70557;DHT22;58107;51.034;3.726;2022-09-01T00:46:31;19.90;60.30
70557;DHT22;58107;51.034;3.726;2022-09-01T00:51:40;19.70;60.70
70557;DHT22;58107;51.034;3.726;2022-09-01T00:54:11;19.70;60.80
70557;DHT22;58107;51.034;3.726;2022-09-01T00:56:40;19.60;60.80
70557;DHT22;58107;51.034;3.726;2022-09-01T00:59:09;19.60;60.60
70557;DHT22;58107;51.034;3.726;2022-09-01T01:01:38;19.50;60.60
70557;DHT22;58107;51.034;3.726;2022-09-01T01:04:08;19.50;60.70
70557;DHT22;58107;51.034;3.726;2022-09-01T01:06:42;19.50;60.60
70557;DHT22;58107;51.034;3.726;2022-09-01T01:09:12;19.50;60.50
70557;DHT22;58107;51.034;3.726;2022-09-01T01:11:40;19.50;60.40
70557;DHT22;58107;51.034;3.726;2022-09-01T01:14:10;19.50;60.50
70557;DHT22;58107;51.034;3.726;2022-09-01T01:16:43;19.40;60.90
70557;DHT22;58107;51.034;3.726;2022-09-01T01:19:17;19.30;60.80
70557;DHT22;58107;51.034;3.726;2022-09-01T01:21:46;19.20;61.10
70557;DHT22;58107;51.034;3.726;2022-09-01T01:24:33;19.20;61.00
70557;DHT22;58107;51.034;3.726;2022-09-01T01:27:01;19.10;61.10
70557;DHT22;58107;51.034;3.726;2022-09-01T01:29:35;19.00;61.20
70557;DHT22;58107;51.034;3.726;2022-09-01T01:32:05;19.00;61.20
70557;DHT22;58107;51.034;3.726;2022-09-01T01:34:34;19.00;61.10
70557;DHT22;58107;51.034;3.726;2022-09-01T01:37:01;19.10;60.90
70557;DHT22;58107;51.034;3.726;2022-09-01T01:39:28;19.20;60.20
70557;DHT22;58107;51.034;3.726;2022-09-01T01:41:56;19.30;59.80
70557;DHT22;58107;51.034;3.726;2022-09-01T01:44:26;19.20;60.00
70557;DHT22;58107;51.034;3.726;2022-09-01T01:46:54;19.20;59.50
70557;DHT22;58107;51.034;3.726;2022-09-01T01:49:25;19.10;59.30
70557;DHT22;58107;51.034;3.726;2022-09-01T01:51:54;19.10;59.60
70557;DHT22;58107;51.034;3.726;2022-09-01T01:54:24;19.00;60.30
70557;DHT22;58107;51.034;3.726;2022-09-01T01:56:54;18.90;59.70
70557;DHT22;58107;51.034;3.726;2022-09-01T01:59:22;19.00;59.50
70557;DHT22;58107;51.034;3.726;2022-09-01T02:01:52;18.90;59.40
70557;DHT22;58107;51.034;3.726;2022-09-01T02:04:20;18.90;59.50
70557;DHT22;58107;51.034;3.726;2022-09-01T02:06:49;18.90;59.50
70557;DHT22;58107;51.034;3.726;2022-09-01T02:09:19;18.80;59.30
70557;DHT22;58107;51.034;3.726;2022-09-01T02:11:48;18.80;59.50
70557;DHT22;58107;51.034;3.726;2022-09-01T02:14:18;18.80;59.10
70557;DHT22;58107;51.034;3.726;2022-09-01T02:16:47;18.70;59.20
70557;DHT22;58107;51.034;3.726;2022-09-01T02:19:15;18.80;59.20
70557;DHT22;58107;51.034;3.726;2022-09-01T02:21:43;18.90;58.50
70557;DHT22;58107;51.034;3.726;2022-09-01T02:24:13;19.00;58.20
70557;DHT22;58107;51.034;3.726;2022-09-01T02:26:42;19.00;58.00
70557;DHT22;58107;51.034;3.726;2022-09-01T02:29:15;19.10;57.80
70557;DHT22;58107;51.034;3.726;2022-09-01T02:31:49;19.20;57.00
70557;DHT22;58107;51.034;3.726;2022-09-01T02:34:19;19.20;57.00
70557;DHT22;58107;51.034;3.726;2022-09-01T02:36:52;19.10;56.90
70557;DHT22;58107;51.034;3.726;2022-09-01T02:39:28;19.10;57.30
70557;DHT22;58107;51.034;3.726;2022-09-01T02:41:57;19.10;57.00
70557;DHT22;58107;51.034;3.726;2022-09-01T02:44:28;19.10;57.20
70557;DHT22;58107;51.034;3.726;2022-09-01T02:46:58;19.10;57.40
70557;DHT22;58107;51.034;3.726;2022-09-01T02:49:26;19.20;56.90
70557;DHT22;58107;51.034;3.726;2022-09-01T02:51:56;19.20;56.60
70557;DHT22;58107;51.034;3.726;2022-09-01T02:54:25;19.20;56.60
70557;DHT22;58107;51.034;3.726;2022-09-01T02:56:54;19.10;56.40
70557;DHT22;58107;51.034;3.726;2022-09-01T02:59:24;19.10;56.50
70557;DHT22;58107;51.034;3.726;2022-09-01T03:01:52;19.20;56.50
70557;DHT22;58107;51.034;3.726;2022-09-01T03:04:21;19.30;56.10
70557;DHT22;58107;51.034;3.726;2022-09-01T03:06:49;19.20;56.10
70557;DHT22;58107;51.034;3.726;2022-09-01T03:09:18;19.20;56.90
70557;DHT22;58107;51.034;3.726;2022-09-01T03:11:48;19.00;56.60
70557;DHT22;58107;51.034;3.726;2022-09-01T03:14:17;18.90;56.80
70557;DHT22;58107;51.034;3.726;2022-09-01T03:16:45;19.00;56.80
70557;DHT22;58107;51.034;3.726;2022-09-01T03:19:14;19.10;56.60
70557;DHT22;58107;51.034;3.726;2022-09-01T03:21:44;19.10;56.40
70557;DHT22;58107;51.034;3.726;2022-09-01T03:24:13;19.10;56.30
70557;DHT22;58107;51.034;3.726;2022-09-01T03:26:43;19.10;56.20
70557;DHT22;58107;51.034;3.726;2022-09-01T03:29:13;19.20;56.10
70557;DHT22;58107;51.034;3.726;2022-09-01T03:31:41;19.20;56.00
70557;DHT22;58107;51.034;3.726;2022-09-01T03:34:10;19.20;56.20
70557;DHT22;58107;51.034;3.726;2022-09-01T03:36:38;19.20;56.00
70557;DHT22;58107;51.034;3.726;2022-09-01T03:39:06;19.20;56.00
70557;DHT22;58107;51.034;3.726;2022-09-01T03:41:35;19.10;56.10
70557;DHT22;58107;51.034;3.726;2022-09-01T03:44:03;19.20;55.90
70557;DHT22;58107;51.034;3.726;2022-09-01T03:46:31;19.30;55.90
70557;DHT22;58107;51.034;3.726;2022-09-01T03:48:59;19.20;55.90
70557;DHT22;58107;51.034;3.726;2022-09-01T03:51:31;19.10;56.20
70557;DHT22;58107;51.034;3.726;2022-09-01T03:53:59;19.10;56.30
70557;DHT22;58107;51.034;3.726;2022-09-01T03:56:28;19.10;56.30
70557;DHT22;58107;51.034;3.726;2022-09-01T03:58:58;19.10;56.70
70557;DHT22;58107;51.034;3.726;2022-09-01T04:01:28;19.00;56.70
70557;DHT22;58107;51.034;3.726;2022-09-01T04:04:00;19.00;56.70
70557;DHT22;58107;51.034;3.726;2022-09-01T04:06:28;19.00;56.80
70557;DHT22;58107;51.034;3.726;2022-09-01T04:08:56;18.90;56.90
70557;DHT22;58107;51.034;3.726;2022-09-01T04:11:25;18.90;57.10
70557;DHT22;58107;51.034;3.726;2022-09-01T04:13:53;18.80;57.30
70557;DHT22;58107;51.034;3.726;2022-09-01T04:16:27;18.80;57.50
70557;DHT22;58107;51.034;3.726;2022-09-01T04:19:15;18.80;57.60
70557;DHT22;58107;51.034;3.726;2022-09-01T04:21:49;18.80;57.60
70557;DHT22;58107;51.034;3.726;2022-09-01T04:24:19;18.80;57.60
70557;DHT22;58107;51.034;3.726;2022-09-01T04:26:50;18.80;57.60
70557;DHT22;58107;51.034;3.726;2022-09-01T04:29:20;18.80;57.50
70557;DHT22;58107;51.034;3.726;2022-09-01T04:31:50;18.80;57.50
70557;DHT22;58107;51.034;3.726;2022-09-01T04:34:20;18.70;57.70
70557;DHT22;58107;51.034;3.726;2022-09-01T04:36:48;18.70;58.10
70557;DHT22;58107;51.034;3.726;2022-09-01T04:39:19;18.50;58.20
70557;DHT22;58107;51.034;3.726;2022-09-01T04:41:47;18.60;58.40
70557;DHT22;58107;51.034;3.726;2022-09-01T04:44:17;18.50;58.50
70557;DHT22;58107;51.034;3.726;2022-09-01T04:46:46;18.50;58.80
70557;DHT22;58107;51.034;3.726;2022-09-01T04:49:18;18.30;59.10
70557;DHT22;58107;51.034;3.726;2022-09-01T04:51:49;18.20;59.60
70557;DHT22;58107;51.034;3.726;2022-09-01T04:54:18;18.20;59.80
70557;DHT22;58107;51.034;3.726;2022-09-01T04:56:47;18.30;59.70
70557;DHT22;58107;51.034;3.726;2022-09-01T04:59:18;18.30;59.50
70557;DHT22;58107;51.034;3.726;2022-09-01T05:01:46;18.20;59.70
70557;DHT22;58107;51.034;3.726;2022-09-01T05:04:18;18.10;60.10
70557;DHT22;58107;51.034;3.726;2022-09-01T05:06:49;17.90;60.80
70557;DHT22;58107;51.034;3.726;2022-09-01T05:09:19;17.90;61.60
70557;DHT22;58107;51.034;3.726;2022-09-01T05:11:47;17.80;62.10
70557;DHT22;58107;51.034;3.726;2022-09-01T05:14:15;17.80;62.10
70557;DHT22;58107;51.034;3.726;2022-09-01T05:16:48;17.80;62.30
70557;DHT22;58107;51.034;3.726;2022-09-01T05:19:17;17.90;62.20
70557;DHT22;58107;51.034;3.726;2022-09-01T05:21:45;17.90;62.00
70557;DHT22;58107;51.034;3.726;2022-09-01T05:24:16;18.00;61.70
70557;DHT22;58107;51.034;3.726;2022-09-01T05:26:45;17.90;61.90
70557;DHT22;58107;51.034;3.726;2022-09-01T05:29:13;17.90;62.10
70557;DHT22;58107;51.034;3.726;2022-09-01T05:31:46;17.80;62.20
70557;DHT22;58107;51.034;3.726;2022-09-01T05:34:14;17.80;62.50
70557;DHT22;58107;51.034;3.726;2022-09-01T05:36:44;17.90;62.60
70557;DHT22;58107;51.034;3.726;2022-09-01T05:39:14;17.90;62.60
70557;DHT22;58107;51.034;3.726;2022-09-01T05:41:42;18.00;62.20
70557;DHT22;58107;51.034;3.726;2022-09-01T05:44:10;18.10;62.10
70557;DHT22;58107;51.034;3.726;2022-09-01T05:46:39;18.20;61.60
70557;DHT22;58107;51.034;3.726;2022-09-01T05:49:10;18.30;61.40
70557;DHT22;58107;51.034;3.726;2022-09-01T05:51:42;18.40;61.30
70557;DHT22;58107;51.034;3.726;2022-09-01T05:54:13;18.60;61.20
70557;DHT22;58107;51.034;3.726;2022-09-01T05:56:42;18.50;60.60
70557;DHT22;58107;51.034;3.726;2022-09-01T05:59:11;18.50;60.60
70557;DHT22;58107;51.034;3.726;2022-09-01T06:01:38;18.60;60.70
70557;DHT22;58107;51.034;3.726;2022-09-01T06:04:08;18.70;60.30
70557;DHT22;58107;51.034;3.726;2022-09-01T06:06:39;18.80;60.10
70557;DHT22;58107;51.034;3.726;2022-09-01T06:09:09;18.90;60.00
70557;DHT22;58107;51.034;3.726;2022-09-01T06:11:37;19.00;59.40
70557;DHT22;58107;51.034;3.726;2022-09-01T06:14:06;19.00;59.40
70557;DHT22;58107;51.034;3.726;2022-09-01T06:16:35;19.20;59.00
70557;DHT22;58107;51.034;3.726;2022-09-01T06:19:04;19.20;58.50
70557;DHT22;58107;51.034;3.726;2022-09-01T06:21:31;19.10;58.50
70557;DHT22;58107;51.034;3.726;2022-09-01T06:23:59;19.10;58.80
70557;DHT22;58107;51.034;3.726;2022-09-01T06:26:30;18.90;58.70
70557;DHT22;58107;51.034;3.726;2022-09-01T06:29:02;18.70;59.30
70557;DHT22;58107;51.034;3.726;2022-09-01T06:31:32;18.60;59.80
70557;DHT22;58107;51.034;3.726;2022-09-01T06:34:01;18.70;59.80
70557;DHT22;58107;51.034;3.726;2022-09-01T06:36:31;18.90;59.50
70557;DHT22;58107;51.034;3.726;2022-09-01T06:39:03;19.20;58.50
70557;DHT22;58107;51.034;3.726;2022-09-01T06:41:31;19.60;57.50
70557;DHT22;58107;51.034;3.726;2022-09-01T06:43:58;19.60;56.80
70557;DHT22;58107;51.034;3.726;2022-09-01T06:46:27;19.90;56.60
70557;DHT22;58107;51.034;3.726;2022-09-01T06:48:55;20.10;56.10
70557;DHT22;58107;51.034;3.726;2022-09-01T06:51:26;20.20;55.40
70557;DHT22;58107;51.034;3.726;2022-09-01T06:53:56;20.10;55.70
70557;DHT22;58107;51.034;3.726;2022-09-01T06:56:29;20.20;55.60
70557;DHT22;58107;51.034;3.726;2022-09-01T06:59:00;20.40;55.30
70557;DHT22;58107;51.034;3.726;2022-09-01T07:01:30;20.30;55.40
70557;DHT22;58107;51.034;3.726;2022-09-01T07:03:58;20.30;55.50
70557;DHT22;58107;51.034;3.726;2022-09-01T07:06:26;20.40;55.50
70557;DHT22;58107;51.034;3.726;2022-09-01T07:08:56;20.70;54.70
70557;DHT22;58107;51.034;3.726;2022-09-01T07:11:25;20.50;55.30
70557;DHT22;58107;51.034;3.726;2022-09-01T07:13:55;20.60;55.10
70557;DHT22;58107;51.034;3.726;2022-09-01T07:16:26;20.70;54.80
70557;DHT22;58107;51.034;3.726;2022-09-01T07:18:56;20.70;55.00
70557;DHT22;58107;51.034;3.726;2022-09-01T07:21:28;20.80;54.40
70557;DHT22;58107;51.034;3.726;2022-09-01T07:23:58;21.00;54.20
70557;DHT22;58107;51.034;3.726;2022-09-01T07:26:26;21.30;53.50
70557;DHT22;58107;51.034;3.726;2022-09-01T07:28:55;21.40;53.20
70557;DHT22;58107;51.034;3.726;2022-09-01T07:31:26;21.40;53.60
70557;DHT22;58107;51.034;3.726;2022-09-01T07:33:57;21.70;52.60
70557;DHT22;58107;51.034;3.726;2022-09-01T07:36:25;22.00;51.80
70557;DHT22;58107;51.034;3.726;2022-09-01T07:38:53;22.10;51.60
70557;DHT22;58107;51.034;3.726;2022-09-01T07:41:22;21.70;52.20
70557;DHT22;58107;51.034;3.726;2022-09-01T07:43:50;21.70;52.60
70557;DHT22;58107;51.034;3.726;2022-09-01T07:46:19;21.80;52.40
70557;DHT22;58107;51.034;3.726;2022-09-01T07:48:49;22.20;51.80
70557;DHT22;58107;51.034;3.726;2022-09-01T07:51:18;22.30;51.50
70557;DHT22;58107;51.034;3.726;2022-09-01T07:53:46;22.70;50.90
70557;DHT22;58107;51.034;3.726;2022-09-01T07:56:17;22.60;50.60
70557;DHT22;58107;51.034;3.726;2022-09-01T07:58:47;22.50;51.00
70557;DHT22;58107;51.034;3.726;2022-09-01T08:01:18;22.70;50.80
70557;DHT22;58107;51.034;3.726;2022-09-01T08:03:48;23.10;50.30
70557;DHT22;58107;51.034;3.726;2022-09-01T08:06:18;22.90;50.00
70557;DHT22;58107;51.034;3.726;2022-09-01T08:08:48;23.20;49.90
70557;DHT22;58107;51.034;3.726;2022-09-01T08:11:18;23.40;49.40
70557;DHT22;58107;51.034;3.726;2022-09-01T08:13:46;23.60;48.90
70557;DHT22;58107;51.034;3.726;2022-09-01T08:16:13;23.50;49.60
70557;DHT22;58107;51.034;3.726;2022-09-01T08:18:42;23.60;49.10
70557;DHT22;58107;51.034;3.726;2022-09-01T08:21:13;23.60;49.50
70557;DHT22;58107;51.034;3.726;2022-09-01T08:23:41;23.40;49.90
70557;DHT22;58107;51.034;3.726;2022-09-01T08:26:11;23.50;50.00
70557;DHT22;58107;51.034;3.726;2022-09-01T08:28:39;23.10;50.70
70557;DHT22;58107;51.034;3.726;2022-09-01T08:31:09;23.60;50.00
70557;DHT22;58107;51.034;3.726;2022-09-01T08:33:38;23.70;49.80
70557;DHT22;58107;51.034;3.726;2022-09-01T08:36:08;23.70;49.90
70557;DHT22;58107;51.034;3.726;2022-09-01T08:38:36;23.80;49.50
70557;DHT22;58107;51.034;3.726;2022-09-01T08:41:16;23.90;49.50
70557;DHT22;58107;51.034;3.726;2022-09-01T08:44:01;24.30;48.90
70557;DHT22;58107;51.034;3.726;2022-09-01T08:46:32;24.10;48.70
70557;DHT22;58107;51.034;3.726;2022-09-01T08:48:58;23.80;49.60
70557;DHT22;58107;51.034;3.726;2022-09-01T08:54:25;23.60;50.40
70557;DHT22;58107;51.034;3.726;2022-09-01T08:56:54;23.60;50.30
70557;DHT22;58107;51.034;3.726;2022-09-01T08:59:22;23.50;50.70
70557;DHT22;58107;51.034;3.726;2022-09-01T09:01:55;23.30;51.20
70557;DHT22;58107;51.034;3.726;2022-09-01T09:09:52;23.30;51.50
70557;DHT22;58107;51.034;3.726;2022-09-01T09:12:30;23.40;51.50
70557;DHT22;58107;51.034;3.726;2022-09-01T09:17:48;23.40;50.90
70557;DHT22;58107;51.034;3.726;2022-09-01T09:20:18;23.50;51.00
70557;DHT22;58107;51.034;3.726;2022-09-01T09:22:46;23.50;51.20
70557;DHT22;58107;51.034;3.726;2022-09-01T09:25:15;23.60;51.20
70557;DHT22;58107;51.034;3.726;2022-09-01T09:27:45;23.60;50.90
70557;DHT22;58107;51.034;3.726;2022-09-01T09:30:25;23.60;51.40
70557;DHT22;58107;51.034;3.726;2022-09-01T09:32:57;23.60;50.90
70557;DHT22;58107;51.034;3.726;2022-09-01T09:35:32;23.70;51.00
70557;DHT22;58107;51.034;3.726;2022-09-01T09:41:03;23.90;50.60
70557;DHT22;58107;51.034;3.726;2022-09-01T09:43:36;24.00;50.70
70557;DHT22;58107;51.034;3.726;2022-09-01T09:46:37;23.90;51.00
70557;DHT22;58107;51.034;3.726;2022-09-01T09:51:41;23.70;51.20
70557;DHT22;58107;51.034;3.726;2022-09-01T09:54:18;23.80;51.00
70557;DHT22;58107;51.034;3.726;2022-09-01T09:56:47;23.90;50.30
70557;DHT22;58107;51.034;3.726;2022-09-01T09:59:18;23.90;50.30
70557;DHT22;58107;51.034;3.726;2022-09-01T10:01:46;23.90;50.60
70557;DHT22;58107;51.034;3.726;2022-09-01T10:04:33;23.90;50.30
70557;DHT22;58107;51.034;3.726;2022-09-01T10:07:08;24.00;50.40
70557;DHT22;58107;51.034;3.726;2022-09-01T10:09:33;23.90;50.20
70557;DHT22;58107;51.034;3.726;2022-09-01T10:12:02;23.90;50.40
70557;DHT22;58107;51.034;3.726;2022-09-01T10:14:47;24.10;49.90
70557;DHT22;58107;51.034;3.726;2022-09-01T10:17:18;24.10;49.50
70557;DHT22;58107;51.034;3.726;2022-09-01T10:19:55;24.20;49.10
70557;DHT22;58107;51.034;3.726;2022-09-01T10:22:23;24.20;48.90
70557;DHT22;58107;51.034;3.726;2022-09-01T10:24:51;24.30;48.70
70557;DHT22;58107;51.034;3.726;2022-09-01T10:27:24;24.40;48.20
70557;DHT22;58107;51.034;3.726;2022-09-01T10:32:36;24.70;47.50
70557;DHT22;58107;51.034;3.726;2022-09-01T10:35:02;24.80;46.50
70557;DHT22;58107;51.034;3.726;2022-09-01T10:37:31;24.60;47.80
70557;DHT22;58107;51.034;3.726;2022-09-01T10:42:47;24.70;47.50
70557;DHT22;58107;51.034;3.726;2022-09-01T10:45:40;24.60;46.90
70557;DHT22;58107;51.034;3.726;2022-09-01T10:47:48;24.80;46.20
70557;DHT22;58107;51.034;3.726;2022-09-01T10:50:30;25.00;45.50
70557;DHT22;58107;51.034;3.726;2022-09-01T10:53:01;25.20;45.40
70557;DHT22;58107;51.034;3.726;2022-09-01T10:55:34;25.30;44.90
70557;DHT22;58107;51.034;3.726;2022-09-01T10:58:23;24.90;45.60
70557;DHT22;58107;51.034;3.726;2022-09-01T11:00:49;24.80;45.90
70557;DHT22;58107;51.034;3.726;2022-09-01T11:06:01;24.80;45.90
70557;DHT22;58107;51.034;3.726;2022-09-01T11:11:34;25.10;45.20
70557;DHT22;58107;51.034;3.726;2022-09-01T11:13:59;25.20;45.50
70557;DHT22;58107;51.034;3.726;2022-09-01T11:16:35;25.20;45.60
70557;DHT22;58107;51.034;3.726;2022-09-01T11:19:27;26.00;44.70
70557;DHT22;58107;51.034;3.726;2022-09-01T11:24:52;28.50;39.30
70557;DHT22;58107;51.034;3.726;2022-09-01T11:30:21;29.90;36.60
70557;DHT22;58107;51.034;3.726;2022-09-01T11:32:51;29.80;34.80
70557;DHT22;58107;51.034;3.726;2022-09-01T11:35:22;29.30;36.20
70557;DHT22;58107;51.034;3.726;2022-09-01T11:37:54;29.20;35.50
70557;DHT22;58107;51.034;3.726;2022-09-01T11:40:23;29.40;35.10
70557;DHT22;58107;51.034;3.726;2022-09-01T11:42:52;30.70;33.90
70557;DHT22;58107;51.034;3.726;2022-09-01T11:45:22;31.60;31.50
70557;DHT22;58107;51.034;3.726;2022-09-01T11:47:56;31.50;31.80
70557;DHT22;58107;51.034;3.726;2022-09-01T11:50:29;31.40;31.70
70557;DHT22;58107;51.034;3.726;2022-09-01T11:53:03;31.30;32.00
70557;DHT22;58107;51.034;3.726;2022-09-01T11:55:40;31.50;31.50
70557;DHT22;58107;51.034;3.726;2022-09-01T11:58:13;32.50;30.30
70557;DHT22;58107;51.034;3.726;2022-09-01T12:00:41;33.30;29.30
70557;DHT22;58107;51.034;3.726;2022-09-01T12:03:22;34.00;28.50
70557;DHT22;58107;51.034;3.726;2022-09-01T12:05:54;33.40;28.50
70557;DHT22;58107;51.034;3.726;2022-09-01T12:08:26;33.10;28.80
70557;DHT22;58107;51.034;3.726;2022-09-01T12:11:07;34.10;27.70
70557;DHT22;58107;51.034;3.726;2022-09-01T12:13:35;33.50;27.70
70557;DHT22;58107;51.034;3.726;2022-09-01T12:16:06;34.10;27.20
70557;DHT22;58107;51.034;3.726;2022-09-01T12:18:36;34.60;26.70
70557;DHT22;58107;51.034;3.726;2022-09-01T12:21:07;34.50;26.60
70557;DHT22;58107;51.034;3.726;2022-09-01T12:23:37;35.10;26.10
70557;DHT22;58107;51.034;3.726;2022-09-01T12:26:26;35.00;25.70
70557;DHT22;58107;51.034;3.726;2022-09-01T12:28:56;35.50;25.70
70557;DHT22;58107;51.034;3.726;2022-09-01T12:31:24;35.50;25.40
70557;DHT22;58107;51.034;3.726;2022-09-01T12:33:55;35.80;25.30
70557;DHT22;58107;51.034;3.726;2022-09-01T12:36:34;34.30;25.90
70557;DHT22;58107;51.034;3.726;2022-09-01T12:39:20;33.20;27.30
70557;DHT22;58107;51.034;3.726;2022-09-01T12:42:06;33.60;27.00
70557;DHT22;58107;51.034;3.726;2022-09-01T12:49:53;32.00;28.70
70557;DHT22;58107;51.034;3.726;2022-09-01T12:52:24;32.20;28.40
70557;DHT22;58107;51.034;3.726;2022-09-01T12:57:37;33.40;27.30
70557;DHT22;58107;51.034;3.726;2022-09-01T13:00:23;34.10;26.70
70557;DHT22;58107;51.034;3.726;2022-09-01T13:05:35;36.60;23.60
70557;DHT22;58107;51.034;3.726;2022-09-01T13:08:07;37.10;23.30
70557;DHT22;58107;51.034;3.726;2022-09-01T13:10:38;36.80;22.90
70557;DHT22;58107;51.034;3.726;2022-09-01T13:13:09;36.10;23.50
70557;DHT22;58107;51.034;3.726;2022-09-01T13:15:39;35.10;24.30
70557;DHT22;58107;51.034;3.726;2022-09-01T13:18:08;34.30;25.30
70557;DHT22;58107;51.034;3.726;2022-09-01T13:20:36;33.90;26.20
70557;DHT22;58107;51.034;3.726;2022-09-01T13:23:03;34.80;25.60
70557;DHT22;58107;51.034;3.726;2022-09-01T13:25:31;35.20;24.80
70557;DHT22;58107;51.034;3.726;2022-09-01T13:27:58;35.30;24.90
70557;DHT22;58107;51.034;3.726;2022-09-01T13:30:28;36.00;24.10
70557;DHT22;58107;51.034;3.726;2022-09-01T13:32:56;36.60;23.40
70557;DHT22;58107;51.034;3.726;2022-09-01T13:35:25;37.70;22.60
70557;DHT22;58107;51.034;3.726;2022-09-01T13:37:52;38.30;21.80
70557;DHT22;58107;51.034;3.726;2022-09-01T13:40:21;38.30;21.50
70557;DHT22;58107;51.034;3.726;2022-09-01T13:42:50;38.30;21.20
70557;DHT22;58107;51.034;3.726;2022-09-01T13:45:21;38.30;21.20
70557;DHT22;58107;51.034;3.726;2022-09-01T13:47:51;38.00;21.10
70557;DHT22;58107;51.034;3.726;2022-09-01T13:50:20;36.90;22.00
70557;DHT22;58107;51.034;3.726;2022-09-01T13:52:52;37.30;22.30
70557;DHT22;58107;51.034;3.726;2022-09-01T13:55:23;37.90;21.80
70557;DHT22;58107;51.034;3.726;2022-09-01T13:57:51;37.60;21.90
70557;DHT22;58107;51.034;3.726;2022-09-01T14:00:21;36.90;22.10
70557;DHT22;58107;51.034;3.726;2022-09-01T14:02:52;35.90;23.00
70557;DHT22;58107;51.034;3.726;2022-09-01T14:05:25;35.20;23.60
70557;DHT22;58107;51.034;3.726;2022-09-01T14:07:54;35.20;23.60
70557;DHT22;58107;51.034;3.726;2022-09-01T14:10:23;36.00;23.50
70557;DHT22;58107;51.034;3.726;2022-09-01T14:12:51;37.00;22.60
70557;DHT22;58107;51.034;3.726;2022-09-01T14:15:19;37.50;21.80
70557;DHT22;58107;51.034;3.726;2022-09-01T14:17:50;36.40;22.30
70557;DHT22;58107;51.034;3.726;2022-09-01T14:20:24;35.80;22.80
70557;DHT22;58107;51.034;3.726;2022-09-01T14:22:52;36.10;22.90
70557;DHT22;58107;51.034;3.726;2022-09-01T14:25:21;36.40;22.70
70557;DHT22;58107;51.034;3.726;2022-09-01T14:27:49;34.90;24.00
70557;DHT22;58107;51.034;3.726;2022-09-01T14:30:25;33.80;25.20
70557;DHT22;58107;51.034;3.726;2022-09-01T14:32:49;34.50;24.60
70557;DHT22;58107;51.034;3.726;2022-09-01T14:35:20;35.00;24.00
70557;DHT22;58107;51.034;3.726;2022-09-01T14:37:50;34.50;24.50
70557;DHT22;58107;51.034;3.726;2022-09-01T14:40:19;33.60;25.40
70557;DHT22;58107;51.034;3.726;2022-09-01T14:42:47;32.60;26.10
70557;DHT22;58107;51.034;3.726;2022-09-01T14:45:25;33.70;25.90
70557;DHT22;58107;51.034;3.726;2022-09-01T14:47:57;35.40;24.00
70557;DHT22;58107;51.034;3.726;2022-09-01T14:50:24;36.10;22.90
70557;DHT22;58107;51.034;3.726;2022-09-01T14:52:54;35.40;23.30
70557;DHT22;58107;51.034;3.726;2022-09-01T14:55:24;36.30;23.00
70557;DHT22;58107;51.034;3.726;2022-09-01T14:57:53;37.40;21.70
70557;DHT22;58107;51.034;3.726;2022-09-01T15:00:21;38.00;20.80
70557;DHT22;58107;51.034;3.726;2022-09-01T15:02:52;38.80;20.20
70557;DHT22;58107;51.034;3.726;2022-09-01T15:05:21;38.40;20.60
70557;DHT22;58107;51.034;3.726;2022-09-01T15:07:50;38.20;20.70
70557;DHT22;58107;51.034;3.726;2022-09-01T15:10:18;37.80;20.60
70557;DHT22;58107;51.034;3.726;2022-09-01T15:12:46;37.20;21.50
70557;DHT22;58107;51.034;3.726;2022-09-01T15:15:16;35.90;22.60
70557;DHT22;58107;51.034;3.726;2022-09-01T15:17:43;34.30;23.80
70557;DHT22;58107;51.034;3.726;2022-09-01T15:20:11;33.00;25.30
70557;DHT22;58107;51.034;3.726;2022-09-01T15:22:57;32.80;25.70
70557;DHT22;58107;51.034;3.726;2022-09-01T15:25:24;34.20;24.40
70557;DHT22;58107;51.034;3.726;2022-09-01T15:27:52;34.90;23.80
70557;DHT22;58107;51.034;3.726;2022-09-01T15:30:20;35.70;22.90
70557;DHT22;58107;51.034;3.726;2022-09-01T15:32:50;36.20;22.40
70557;DHT22;58107;51.034;3.726;2022-09-01T15:35:20;36.40;22.20
70557;DHT22;58107;51.034;3.726;2022-09-01T15:37:50;35.80;22.40
70557;DHT22;58107;51.034;3.726;2022-09-01T15:40:18;34.40;23.50
70557;DHT22;58107;51.034;3.726;2022-09-01T15:42:46;34.20;24.00
70557;DHT22;58107;51.034;3.726;2022-09-01T15:45:18;33.90;24.20
70557;DHT22;58107;51.034;3.726;2022-09-01T15:47:47;33.20;25.00
70557;DHT22;58107;51.034;3.726;2022-09-01T15:50:19;32.40;26.00
70557;DHT22;58107;51.034;3.726;2022-09-01T15:55:23;32.50;25.60
70557;DHT22;58107;51.034;3.726;2022-09-01T15:57:50;32.20;25.50
70557;DHT22;58107;51.034;3.726;2022-09-01T16:00:22;31.90;25.80
70557;DHT22;58107;51.034;3.726;2022-09-01T16:02:49;31.90;26.20
70557;DHT22;58107;51.034;3.726;2022-09-01T16:05:17;32.10;25.90
70557;DHT22;58107;51.034;3.726;2022-09-01T16:07:45;31.70;26.30
70557;DHT22;58107;51.034;3.726;2022-09-01T16:10:13;31.30;26.50
70557;DHT22;58107;51.034;3.726;2022-09-01T16:12:42;30.90;27.10
70557;DHT22;58107;51.034;3.726;2022-09-01T16:15:12;30.40;27.50
70557;DHT22;58107;51.034;3.726;2022-09-01T16:18:02;30.00;28.30
70557;DHT22;58107;51.034;3.726;2022-09-01T16:20:34;29.80;28.50
70557;DHT22;58107;51.034;3.726;2022-09-01T16:23:07;29.20;29.10
70557;DHT22;58107;51.034;3.726;2022-09-01T16:25:32;28.90;29.90
70557;DHT22;58107;51.034;3.726;2022-09-01T16:28:04;28.80;30.30
70557;DHT22;58107;51.034;3.726;2022-09-01T16:30:30;28.60;30.80
70557;DHT22;58107;51.034;3.726;2022-09-01T16:33:01;28.50;30.80
70557;DHT22;58107;51.034;3.726;2022-09-01T16:35:41;28.30;31.00
70557;DHT22;58107;51.034;3.726;2022-09-01T16:40:55;28.00;31.60
70557;DHT22;58107;51.034;3.726;2022-09-01T16:43:26;28.00;31.60